createdAt,value
2018-05-13T00:00:10.164Z,14.87
2018-05-13T00:01:15.433Z,18.20
2018-05-13T00:03:22.052Z,22.17
2018-05-13T00:04:27.504Z,18.50
2018-05-13T00:05:33.435Z,19.60
2018-05-13T00:06:38.863Z,21.20
2018-05-13T00:07:44.225Z,16.33
2018-05-13T00:08:50.084Z,18.35
2018-05-13T00:09:55.500Z,17.40
2018-05-13T00:11:00.786Z,19.23
2018-05-13T00:12:06.262Z,20.37
2018-05-13T00:13:12.069Z,19.10
2018-05-13T00:14:17.430Z,17.27
2018-05-13T00:15:22.751Z,20.45
2018-05-13T00:16:28.100Z,18.02
2018-05-13T00:17:33.409Z,22.17
2018-05-13T00:18:38.933Z,21.37
2018-05-13T00:19:44.290Z,22.08
2018-05-13T00:20:49.851Z,18.55
2018-05-13T00:21:55.174Z,22.58
2018-05-13T00:23:00.555Z,20.27
2018-05-13T00:24:06.624Z,18.70
2018-05-13T00:25:12.148Z,21.60
2018-05-13T00:26:17.406Z,18.92
2018-05-13T00:27:22.701Z,16.95
2018-05-13T00:28:28.041Z,23.80
2018-05-13T00:29:33.339Z,23.25
2018-05-13T00:30:38.749Z,24.17
2018-05-13T00:31:44.170Z,23.35
2018-05-13T00:32:49.525Z,21.25
2018-05-13T00:33:54.785Z,17.58
2018-05-13T00:35:00.601Z,20.77
2018-05-13T00:36:05.990Z,20.17
2018-05-13T00:37:11.274Z,20.50
2018-05-13T00:38:16.593Z,20.27
2018-05-13T00:39:21.868Z,16.98
2018-05-13T00:40:27.680Z,15.80
2018-05-13T00:41:33.008Z,24.25
2018-05-13T00:42:38.360Z,17.52
2018-05-13T00:43:43.649Z,15.38
2018-05-13T00:44:48.943Z,17.42
2018-05-13T00:45:54.241Z,18.75
2018-05-13T00:46:59.786Z,16.60
2018-05-13T00:48:05.136Z,17.62
2018-05-13T00:49:10.399Z,15.90
2018-05-13T00:50:15.713Z,15.65
2018-05-13T00:51:21.476Z,18.80
2018-05-13T00:52:26.868Z,17.10
2018-05-13T00:53:32.134Z,20.30
2018-05-13T00:55:07.972Z,19.83
2018-05-13T00:56:13.233Z,18.48
2018-05-13T00:57:19.030Z,17.65
2018-05-13T00:58:24.515Z,15.73
2018-05-13T00:59:29.776Z,16.90
2018-05-13T01:00:35.049Z,18.52
2018-05-13T01:01:40.340Z,18.58
2018-05-13T01:02:46.095Z,23.33
2018-05-13T01:03:51.441Z,15.45
2018-05-13T01:04:57.193Z,19.20
2018-05-13T01:06:02.454Z,18.55
2018-05-13T01:07:07.737Z,23.33
2018-05-13T01:08:12.978Z,18.00
2018-05-13T01:09:18.249Z,18.30
2018-05-13T01:10:23.514Z,15.88
2018-05-13T01:11:28.753Z,14.00
2018-05-13T01:12:34.288Z,20.30
2018-05-13T01:13:39.770Z,21.85
2018-05-13T01:14:45.345Z,22.10
2018-05-13T01:15:50.611Z,18.80
2018-05-13T01:16:55.840Z,48.83
2018-05-13T01:18:01.330Z,32.42
2018-05-13T01:19:06.634Z,29.45
2018-05-13T01:20:11.903Z,21.62
2018-05-13T01:21:17.167Z,17.05
2018-05-13T01:22:22.417Z,16.52
2018-05-13T01:23:27.660Z,18.05
2018-05-13T01:24:32.892Z,19.42
2018-05-13T01:25:38.149Z,19.98
2018-05-13T01:26:43.402Z,25.55
2018-05-13T01:27:48.852Z,22.15
2018-05-13T01:28:54.102Z,26.45
2018-05-13T01:29:59.403Z,20.62
2018-05-13T01:31:04.703Z,19.00
2018-05-13T01:32:09.977Z,29.20
2018-05-13T01:33:15.270Z,41.42
2018-05-13T01:34:20.776Z,31.98
2018-05-13T01:35:26.022Z,13.05
2018-05-13T01:36:31.258Z,16.73
2018-05-13T01:37:36.533Z,18.53
2018-05-13T01:38:41.791Z,28.48
2018-05-13T01:39:47.042Z,23.30
2018-05-13T01:40:52.294Z,34.78
2018-05-13T01:41:58.032Z,16.02
2018-05-13T01:43:03.553Z,51.90
2018-05-13T01:44:08.804Z,37.53
2018-05-13T01:45:14.043Z,31.27
2018-05-13T01:46:19.307Z,25.17
2018-05-13T01:47:24.845Z,39.75
2018-05-13T01:48:30.143Z,19.77
2018-05-13T01:49:35.374Z,17.20
2018-05-13T01:50:40.676Z,19.25
2018-05-13T01:51:45.934Z,38.25
2018-05-13T01:52:51.345Z,35.90
2018-05-13T01:53:56.580Z,15.52
2018-05-13T01:55:01.834Z,26.65
2018-05-13T01:56:07.098Z,31.67
2018-05-13T01:57:12.391Z,31.92
2018-05-13T01:58:18.012Z,23.62
2018-05-13T01:59:23.272Z,15.20
2018-05-13T02:00:28.548Z,12.98
2018-05-13T02:01:33.818Z,14.23
2018-05-13T02:02:39.085Z,14.00
2018-05-13T02:03:44.566Z,13.83
2018-05-13T02:04:49.881Z,13.20
2018-05-13T02:05:55.154Z,11.88
2018-05-13T02:07:00.455Z,11.82
2018-05-13T02:08:05.742Z,19.40
2018-05-13T02:09:10.971Z,12.68
2018-05-13T02:10:16.648Z,14.77
2018-05-13T02:11:21.917Z,12.18
2018-05-13T02:12:27.827Z,11.77
2018-05-13T02:13:33.051Z,10.93
2018-05-13T02:14:38.326Z,14.00
2018-05-13T02:15:43.748Z,13.10
2018-05-13T02:16:49.019Z,10.80
2018-05-13T02:17:54.375Z,11.75
2018-05-13T02:18:59.993Z,10.50
2018-05-13T02:20:05.268Z,14.98
2018-05-13T02:21:11.088Z,12.63
2018-05-13T02:22:16.329Z,11.65
2018-05-13T02:23:21.584Z,9.90
2018-05-13T02:24:27.094Z,14.18
2018-05-13T02:25:32.337Z,11.70
2018-05-13T02:26:37.753Z,9.57
2018-05-13T02:28:58.836Z,10.10
2018-05-13T02:30:04.159Z,9.43
2018-05-13T02:31:09.475Z,9.30
2018-05-13T02:32:14.727Z,12.48
2018-05-13T02:33:20.041Z,11.35
2018-05-13T02:34:25.316Z,10.27
2018-05-13T02:35:30.672Z,9.57
2018-05-13T02:36:36.172Z,8.93
2018-05-13T02:37:41.921Z,14.25
2018-05-13T02:38:47.273Z,18.90
2018-05-13T02:39:52.552Z,16.85
2018-05-13T02:40:57.875Z,13.20
2018-05-13T02:42:03.973Z,10.60
2018-05-13T02:43:09.379Z,9.57
2018-05-13T02:44:14.629Z,14.48
2018-05-13T02:46:22.504Z,14.00
2018-05-13T02:47:27.757Z,15.98
2018-05-13T02:48:33.011Z,15.40
2018-05-13T02:49:38.271Z,11.80
2018-05-13T02:50:43.753Z,9.02
2018-05-13T02:51:49.236Z,12.13
2018-05-13T02:52:54.499Z,11.07
2018-05-13T02:54:00.063Z,12.55
2018-05-13T02:55:05.356Z,10.38
2018-05-13T02:56:10.842Z,9.80
2018-05-13T02:57:16.150Z,9.60
2018-05-13T02:58:21.407Z,12.30
2018-05-13T02:59:26.729Z,14.45
2018-05-13T03:00:32.046Z,16.08
2018-05-13T03:01:37.318Z,11.80
2018-05-13T03:02:42.572Z,9.73
2018-05-13T03:03:47.816Z,12.57
2018-05-13T03:04:53.404Z,10.98
2018-05-13T03:05:58.990Z,13.05
2018-05-13T03:07:04.280Z,12.37
2018-05-13T03:08:09.694Z,11.82
2018-05-13T03:09:14.975Z,11.10
2018-05-13T03:10:20.225Z,14.95
2018-05-13T03:11:25.468Z,12.87
2018-05-13T03:12:30.820Z,10.30
2018-05-13T03:13:36.141Z,13.43
2018-05-13T03:14:41.409Z,13.30
2018-05-13T03:15:46.697Z,15.18
2018-05-13T03:16:52.010Z,13.85
2018-05-13T03:17:57.273Z,17.42
2018-05-13T03:19:02.600Z,15.50
2018-05-13T03:20:07.938Z,50.12
2018-05-13T03:21:13.526Z,39.45
2018-05-13T03:22:19.645Z,31.73
2018-05-13T03:23:24.917Z,27.13
2018-05-13T03:24:30.215Z,18.62
2018-05-13T03:25:35.504Z,21.35
2018-05-13T03:26:40.813Z,10.45
2018-05-13T03:27:46.127Z,18.83
2018-05-13T03:28:51.369Z,13.73
2018-05-13T03:29:56.817Z,13.68
2018-05-13T03:31:02.138Z,16.37
2018-05-13T03:32:07.472Z,18.27
2018-05-13T03:33:12.791Z,20.00
2018-05-13T03:34:18.562Z,38.10
2018-05-13T03:35:24.109Z,20.27
2018-05-13T03:36:29.408Z,13.30
2018-05-13T03:37:35.070Z,13.27
2018-05-13T03:38:40.790Z,13.65
2018-05-13T03:39:46.076Z,18.92
2018-05-13T03:40:51.618Z,17.35
2018-05-13T03:41:57.275Z,15.80
2018-05-13T03:43:02.525Z,14.00
2018-05-13T03:44:07.938Z,15.38
2018-05-13T03:45:13.521Z,12.55
2018-05-13T03:46:19.023Z,12.23
2018-05-13T03:47:24.406Z,15.52
2018-05-13T03:48:29.664Z,18.52
2018-05-13T03:49:34.935Z,13.75
2018-05-13T03:50:40.323Z,13.50
2018-05-13T03:51:45.922Z,11.30
2018-05-13T03:52:51.147Z,14.73
2018-05-13T03:53:56.380Z,11.18
2018-05-13T03:55:01.619Z,11.85
2018-05-13T03:56:07.150Z,12.75
2018-05-13T03:57:12.754Z,14.27
2018-05-13T03:58:18.187Z,11.70
2018-05-13T03:59:23.471Z,13.20
2018-05-13T04:00:29.076Z,14.23
2018-05-13T04:01:34.333Z,14.43
2018-05-13T04:02:40.254Z,16.92
2018-05-13T04:03:45.549Z,13.77
2018-05-13T04:04:50.813Z,18.58
2018-05-13T04:05:56.121Z,10.48
2018-05-13T04:07:01.623Z,15.15
2018-05-13T04:08:11.331Z,14.38
2018-05-13T04:09:21.985Z,11.55
2018-05-13T04:10:32.856Z,14.00
2018-05-13T04:13:48.184Z,12.82
2018-05-13T04:15:17.001Z,16.67
2018-05-13T04:16:22.619Z,14.63
2018-05-13T04:17:28.060Z,16.92
2018-05-13T04:18:33.583Z,15.18
2018-05-13T04:19:38.927Z,13.65
2018-05-13T04:20:44.682Z,15.25
2018-05-13T04:21:50.288Z,20.05
2018-05-13T04:22:55.620Z,16.17
2018-05-13T04:24:01.325Z,10.77
2018-05-13T04:25:06.629Z,12.85
2018-05-13T04:26:11.927Z,16.05
2018-05-13T04:27:17.157Z,17.50
2018-05-13T04:28:22.468Z,17.02
2018-05-13T04:29:28.026Z,11.10
2018-05-13T04:30:33.363Z,13.77
2018-05-13T04:31:39.039Z,18.70
2018-05-13T04:32:44.326Z,15.53
2018-05-13T04:33:49.692Z,14.43
2018-05-13T04:34:55.023Z,9.98
2018-05-13T04:36:00.499Z,12.13
2018-05-13T04:37:05.823Z,11.95
2018-05-13T04:38:11.220Z,12.48
2018-05-13T04:39:16.636Z,14.30
2018-05-13T04:40:22.000Z,13.38
2018-05-13T04:41:27.499Z,18.12
2018-05-13T04:42:33.104Z,11.98
2018-05-13T04:43:38.462Z,14.68
2018-05-13T04:44:43.819Z,12.35
2018-05-13T04:45:49.261Z,11.55
2018-05-13T04:46:54.608Z,13.70
2018-05-13T04:48:00.234Z,12.77
2018-05-13T04:49:05.575Z,13.55
2018-05-13T04:50:11.161Z,11.38
2018-05-13T04:51:16.498Z,12.15
2018-05-13T04:52:21.773Z,15.00
2018-05-13T04:53:27.115Z,13.33
2018-05-13T04:54:32.471Z,14.77
2018-05-13T04:55:37.951Z,12.60
2018-05-13T04:56:43.637Z,12.55
2018-05-13T04:57:49.012Z,17.23
2018-05-13T04:58:55.126Z,10.68
2018-05-13T05:00:00.482Z,14.15
2018-05-13T05:01:05.952Z,13.05
2018-05-13T05:02:11.273Z,10.20
2018-05-13T05:03:16.632Z,12.93
2018-05-13T05:04:21.974Z,12.10
2018-05-13T05:05:27.323Z,13.82
2018-05-13T05:06:32.698Z,12.68
2018-05-13T05:07:38.033Z,18.12
2018-05-13T05:08:43.548Z,13.05
2018-05-13T05:09:48.977Z,19.05
2018-05-13T05:10:54.294Z,10.25
2018-05-13T05:11:59.912Z,11.90
2018-05-13T05:13:05.269Z,14.77
2018-05-13T05:14:10.639Z,13.35
2018-05-13T05:15:16.317Z,15.30
2018-05-13T05:16:21.898Z,14.02
2018-05-13T05:17:27.711Z,15.90
2018-05-13T05:18:33.056Z,13.80
2018-05-13T05:19:38.364Z,14.57
2018-05-13T05:20:43.907Z,21.10
2018-05-13T05:21:49.504Z,16.97
2018-05-13T05:22:54.915Z,27.23
2018-05-13T05:24:00.258Z,21.05
2018-05-13T05:25:05.567Z,16.83
2018-05-13T05:26:10.896Z,16.48
2018-05-13T05:27:16.202Z,18.97
2018-05-13T05:28:21.529Z,26.12
2018-05-13T05:29:27.448Z,13.98
2018-05-13T05:30:32.755Z,13.02
2018-05-13T05:31:38.100Z,10.82
2018-05-13T05:32:43.804Z,14.95
2018-05-13T05:33:49.998Z,16.33
2018-05-13T05:34:55.341Z,16.12
2018-05-13T05:36:00.659Z,22.42
2018-05-13T05:37:05.988Z,22.73
2018-05-13T05:38:11.332Z,21.77
2018-05-13T05:39:16.741Z,247.57
2018-05-13T05:40:22.102Z,58.53
2018-05-13T05:41:28.100Z,22.05
2018-05-13T05:42:33.659Z,24.52
2018-05-13T05:43:38.913Z,32.80
2018-05-13T05:44:44.362Z,21.48
2018-05-13T05:45:49.731Z,11.52
2018-05-13T05:46:55.047Z,17.95
2018-05-13T05:48:00.335Z,14.13
2018-05-13T05:49:05.688Z,11.65
2018-05-13T05:50:18.577Z,23.85
2018-05-13T05:51:27.387Z,24.70
2018-05-13T05:52:33.107Z,28.65
2018-05-13T05:53:38.379Z,17.45
2018-05-13T05:54:43.647Z,20.58
2018-05-13T05:55:48.930Z,16.60
2018-05-13T05:56:54.202Z,16.48
2018-05-13T05:57:59.588Z,17.65
2018-05-13T05:59:04.937Z,21.23
2018-05-13T06:00:10.222Z,15.52
2018-05-13T06:01:15.497Z,15.38
2018-05-13T06:02:20.898Z,15.23
2018-05-13T06:03:26.126Z,16.80
2018-05-13T06:04:31.423Z,16.83
2018-05-13T06:05:36.680Z,14.93
2018-05-13T06:06:41.950Z,12.60
2018-05-13T06:07:47.205Z,25.50
2018-05-13T06:08:52.461Z,17.00
2018-05-13T06:09:58.009Z,10.65
2018-05-13T06:11:03.274Z,18.37
2018-05-13T06:12:08.624Z,14.20
2018-05-13T06:13:13.926Z,15.68
2018-05-13T06:14:19.185Z,19.35
2018-05-13T06:15:24.510Z,20.73
2018-05-13T06:16:29.795Z,11.80
2018-05-13T06:17:35.264Z,15.73
2018-05-13T06:18:40.528Z,12.50
2018-05-13T06:19:45.871Z,14.10
2018-05-13T06:20:51.696Z,9.75
2018-05-13T06:21:56.981Z,15.32
2018-05-13T06:23:02.231Z,10.23
2018-05-13T06:24:07.503Z,13.93
2018-05-13T06:25:12.839Z,17.30
2018-05-13T06:26:18.318Z,13.43
2018-05-13T06:27:23.602Z,13.32
2018-05-13T06:28:28.842Z,14.00
2018-05-13T06:29:34.137Z,12.93
2018-05-13T06:30:39.381Z,18.70
2018-05-13T06:31:44.681Z,17.12
2018-05-13T06:32:49.969Z,14.60
2018-05-13T06:33:55.300Z,17.00
2018-05-13T06:35:00.595Z,18.05
2018-05-13T06:36:06.060Z,15.35
2018-05-13T06:37:11.694Z,17.55
2018-05-13T06:38:16.934Z,16.77
2018-05-13T06:39:22.205Z,12.80
2018-05-13T06:40:27.460Z,16.58
2018-05-13T06:41:33.048Z,23.50
2018-05-13T06:42:38.392Z,24.75
2018-05-13T06:43:43.641Z,20.75
2018-05-13T06:44:48.960Z,37.60
2018-05-13T06:45:54.349Z,57.97
2018-05-13T06:46:59.701Z,60.30
2018-05-13T06:48:05.484Z,35.38
2018-05-13T06:49:10.831Z,24.45
2018-05-13T06:50:16.144Z,48.83
2018-05-13T06:51:21.734Z,34.03
2018-05-13T06:52:26.870Z,27.80
2018-05-13T06:53:32.199Z,26.20
2018-05-13T06:54:37.552Z,37.47
2018-05-13T06:55:43.049Z,31.50
2018-05-13T06:56:48.392Z,28.10
2018-05-13T06:57:53.689Z,19.77
2018-05-13T06:58:59.014Z,50.13
2018-05-13T07:00:04.321Z,67.20
2018-05-13T07:01:09.717Z,46.92
2018-05-13T07:02:15.070Z,42.92
2018-05-13T07:03:20.422Z,54.88
2018-05-13T07:04:25.789Z,28.83
2018-05-13T07:05:31.432Z,23.77
2018-05-13T07:06:36.773Z,37.67
2018-05-13T07:07:42.136Z,35.97
2018-05-13T07:08:47.473Z,34.10
2018-05-13T07:09:52.843Z,45.95
2018-05-13T07:10:58.271Z,53.47
2018-05-13T07:12:03.629Z,53.38
2018-05-13T07:13:09.124Z,52.67
2018-05-13T07:14:14.484Z,53.25
2018-05-13T07:15:19.863Z,35.50
2018-05-13T07:16:25.242Z,44.45
2018-05-13T07:17:31.814Z,47.92
2018-05-13T07:18:37.094Z,51.13
2018-05-13T07:19:42.386Z,46.78
2018-05-13T07:20:47.658Z,47.30
2018-05-13T07:21:52.962Z,47.65
2018-05-13T07:22:58.253Z,47.67
2018-05-13T07:24:03.649Z,45.20
2018-05-13T07:25:09.024Z,44.37
2018-05-13T07:26:14.543Z,53.63
2018-05-13T07:27:19.926Z,50.90
2018-05-13T07:28:25.575Z,46.72
2018-05-13T07:29:30.831Z,50.65
2018-05-13T07:30:36.201Z,45.83
2018-05-13T07:31:41.582Z,42.70
2018-05-13T07:32:46.979Z,61.10
2018-05-13T07:35:10.523Z,48.45
2018-05-13T07:36:19.250Z,54.85
2018-05-13T07:37:25.232Z,41.13
2018-05-13T07:38:30.689Z,47.75
2018-05-13T07:39:36.513Z,48.55
2018-05-13T07:40:41.966Z,99.17
2018-05-13T07:41:47.258Z,53.25
2018-05-13T07:42:52.707Z,48.97
2018-05-13T07:43:58.022Z,49.40
2018-05-13T07:45:03.817Z,53.78
2018-05-13T07:46:09.149Z,57.08
2018-05-13T07:47:14.472Z,57.38
2018-05-13T07:48:19.741Z,52.95
2018-05-13T07:49:25.046Z,62.28
2018-05-13T07:50:30.498Z,55.03
2018-05-13T07:51:35.756Z,56.42
2018-05-13T07:52:41.006Z,57.80
2018-05-13T07:53:46.374Z,61.77
2018-05-13T07:54:51.700Z,53.45
2018-05-13T07:55:57.362Z,51.55
2018-05-13T07:57:02.658Z,50.50
2018-05-13T07:58:07.949Z,50.12
2018-05-13T07:59:13.201Z,49.53
2018-05-13T08:00:18.562Z,45.50
2018-05-13T08:01:27.570Z,45.63
2018-05-13T08:02:32.799Z,47.40
2018-05-13T08:03:38.251Z,48.90
2018-05-13T08:04:43.677Z,56.20
2018-05-13T08:05:49.082Z,57.45
2018-05-13T08:06:54.726Z,53.85
2018-05-13T08:08:00.109Z,52.17
2018-05-13T08:09:05.789Z,52.72
2018-05-13T08:10:11.106Z,50.88
2018-05-13T08:11:16.478Z,54.07
2018-05-13T08:12:22.017Z,56.08
2018-05-13T08:13:27.401Z,51.35
2018-05-13T08:14:32.788Z,60.03
2018-05-13T08:15:38.138Z,51.42
2018-05-13T08:16:43.564Z,52.08
2018-05-13T08:17:48.973Z,53.90
2018-05-13T08:18:54.359Z,64.60
2018-05-13T08:19:59.798Z,53.53
2018-05-13T08:21:05.194Z,58.20
2018-05-13T08:22:10.636Z,50.63
2018-05-13T08:23:15.997Z,54.70
2018-05-13T08:24:21.356Z,53.85
2018-05-13T08:25:27.212Z,55.38
2018-05-13T08:26:32.680Z,58.60
2018-05-13T08:27:38.015Z,54.55
2018-05-13T08:28:43.340Z,51.03
2018-05-13T08:29:48.706Z,61.17
2018-05-13T08:30:54.088Z,56.10
2018-05-13T08:31:59.510Z,55.67
2018-05-13T08:33:04.903Z,58.05
2018-05-13T08:34:10.238Z,64.80
2018-05-13T08:35:15.724Z,72.20
2018-05-13T08:36:21.543Z,54.90
2018-05-13T08:37:26.884Z,53.20
2018-05-13T08:38:32.249Z,58.10
2018-05-13T08:39:37.596Z,54.40
2018-05-13T08:40:43.062Z,56.25
2018-05-13T08:41:48.435Z,54.70
2018-05-13T08:42:53.784Z,56.60
2018-05-13T08:43:59.280Z,55.00
2018-05-13T08:45:04.677Z,57.00
2018-05-13T08:46:10.041Z,61.17
2018-05-13T08:47:15.784Z,56.05
2018-05-13T08:48:21.079Z,58.47
2018-05-13T08:49:26.442Z,59.65
2018-05-13T08:50:32.086Z,52.95
2018-05-13T08:51:37.428Z,63.03
2018-05-13T08:52:43.749Z,59.78
2018-05-13T08:53:49.015Z,58.45
2018-05-13T08:54:54.310Z,60.67
2018-05-13T08:55:59.679Z,60.67
2018-05-13T08:57:05.143Z,65.25
2018-05-13T08:58:10.480Z,61.95
2018-05-13T08:59:15.869Z,61.42
2018-05-13T09:00:21.277Z,61.60
2018-05-13T09:01:26.603Z,67.80
2018-05-13T09:02:31.978Z,56.58
2018-05-13T09:03:37.863Z,60.63
2018-05-13T09:04:43.210Z,59.78
2018-05-13T09:05:48.560Z,58.28
2018-05-13T09:06:53.961Z,61.42
2018-05-13T09:07:59.336Z,60.35
2018-05-13T09:09:05.383Z,62.78
2018-05-13T09:10:10.744Z,60.45
2018-05-13T09:11:16.021Z,64.25
2018-05-13T09:12:21.628Z,70.70
2018-05-13T09:13:27.004Z,60.50
2018-05-13T09:14:32.453Z,65.40
2018-05-13T09:15:37.872Z,70.78
2018-05-13T09:16:43.255Z,64.95
2018-05-13T09:17:48.780Z,67.12
2018-05-13T09:18:54.202Z,71.15
2018-05-13T09:19:59.895Z,80.35
2018-05-13T09:21:05.141Z,74.70
2018-05-13T09:22:10.462Z,74.75
2018-05-13T09:23:15.751Z,76.80
2018-05-13T09:24:21.415Z,75.80
2018-05-13T09:25:26.756Z,76.18
2018-05-13T09:26:33.122Z,84.90
2018-05-13T09:27:38.452Z,82.60
2018-05-13T09:28:43.838Z,81.87
2018-05-13T09:29:49.286Z,79.15
2018-05-13T09:30:54.617Z,78.93
2018-05-13T09:32:00.552Z,78.28
2018-05-13T09:33:06.018Z,78.30
2018-05-13T09:34:11.331Z,84.13
2018-05-13T09:35:16.948Z,80.97
2018-05-13T09:36:22.333Z,85.53
2018-05-13T09:37:27.826Z,98.45
2018-05-13T09:38:33.304Z,86.75
2018-05-13T09:39:38.675Z,85.40
2018-05-13T09:40:44.081Z,89.10
2018-05-13T09:41:49.486Z,81.30
2018-05-13T09:42:55.451Z,83.35
2018-05-13T09:44:00.811Z,88.22
2018-05-13T09:45:06.215Z,90.60
2018-05-13T09:46:11.592Z,85.50
2018-05-13T09:47:16.984Z,85.78
2018-05-13T09:48:22.359Z,93.50
2018-05-13T09:49:27.695Z,87.45
2018-05-13T09:50:33.044Z,84.22
2018-05-13T09:51:38.398Z,85.03
2018-05-13T09:52:43.759Z,91.95
2018-05-13T09:53:49.178Z,90.10
2018-05-13T09:54:54.613Z,94.62
2018-05-13T09:55:59.951Z,86.10
2018-05-13T09:57:05.386Z,92.67
2018-05-13T09:58:10.836Z,90.97
2018-05-13T09:59:16.213Z,90.82
2018-05-13T10:00:22.103Z,92.28
2018-05-13T10:01:27.384Z,87.45
2018-05-13T10:02:33.123Z,89.32
2018-05-13T10:03:38.451Z,94.60
2018-05-13T10:04:44.088Z,87.12
2018-05-13T10:05:49.493Z,85.78
2018-05-13T10:06:55.096Z,93.83
2018-05-13T10:08:00.534Z,90.72
2018-05-13T10:09:05.988Z,87.12
2018-05-13T10:10:12.133Z,92.37
2018-05-13T10:11:17.949Z,100.00
2018-05-13T10:12:23.369Z,91.00
2018-05-13T10:13:28.722Z,95.80
2018-05-13T10:14:34.138Z,99.57
2018-05-13T10:15:39.510Z,98.87
2018-05-13T10:16:44.877Z,96.25
2018-05-13T10:17:50.258Z,104.20
2018-05-13T10:18:55.700Z,102.93
2018-05-13T10:20:01.068Z,110.15
2018-05-13T10:21:06.526Z,106.00
2018-05-13T10:22:11.892Z,121.95
2018-05-13T10:23:17.507Z,122.78
2018-05-13T10:24:22.934Z,116.00
2018-05-13T10:25:28.259Z,115.53
2018-05-13T10:26:33.521Z,115.90
2018-05-13T10:27:39.049Z,127.35
2018-05-13T10:28:44.403Z,112.07
2018-05-13T10:31:57.579Z,121.80
2018-05-13T10:33:02.915Z,110.53
2018-05-13T10:34:08.327Z,119.43
2018-05-13T10:35:13.766Z,119.18
2018-05-13T10:36:19.210Z,114.75
2018-05-13T10:37:24.798Z,110.47
2018-05-13T10:38:30.254Z,116.53
2018-05-13T10:39:35.951Z,124.32
2018-05-13T10:40:41.262Z,150.73
2018-05-13T10:41:46.735Z,156.77
2018-05-13T10:42:52.247Z,126.50
2018-05-13T10:43:57.624Z,115.28
2018-05-13T10:45:03.046Z,113.30
2018-05-13T10:46:08.424Z,134.43
2018-05-13T10:47:13.845Z,123.90
2018-05-13T10:48:19.267Z,120.55
2018-05-13T10:49:24.653Z,159.27
2018-05-13T10:50:30.091Z,150.50
2018-05-13T10:51:35.578Z,146.77
2018-05-13T10:52:41.284Z,154.40
2018-05-13T10:53:46.728Z,163.68
2018-05-13T10:54:52.124Z,120.43
2018-05-13T10:55:57.662Z,151.75
2018-05-13T10:57:03.039Z,193.15
2018-05-13T10:58:08.364Z,197.02
2018-05-13T10:59:13.748Z,181.63
2018-05-13T11:00:19.445Z,147.13
2018-05-13T11:01:24.915Z,122.55
2018-05-13T11:02:30.343Z,123.45
2018-05-13T11:03:35.644Z,120.25
2018-05-13T11:04:41.120Z,131.40
2018-05-13T11:05:46.472Z,113.18
2018-05-13T11:06:52.027Z,128.35
2018-05-13T11:07:57.688Z,128.80
2018-05-13T11:09:03.136Z,189.30
2018-05-13T11:10:08.542Z,167.90
2018-05-13T11:11:14.127Z,117.65
2018-05-13T11:12:19.488Z,115.57
2018-05-13T11:13:24.789Z,109.07
2018-05-13T11:14:30.309Z,112.05
2018-05-13T11:15:37.407Z,113.28
2018-05-13T11:16:43.029Z,108.18
2018-05-13T11:17:49.395Z,112.82
2018-05-13T11:18:55.272Z,107.47
2018-05-13T11:20:00.635Z,106.63
2018-05-13T11:21:06.013Z,107.87
2018-05-13T11:22:12.275Z,111.12
2018-05-13T11:23:17.568Z,105.20
2018-05-13T11:24:22.902Z,114.45
2018-05-13T11:25:28.200Z,124.55
2018-05-13T11:26:34.200Z,111.97
2018-05-13T11:27:39.458Z,110.65
2018-05-13T11:28:44.773Z,108.30
2018-05-13T11:29:50.182Z,123.07
2018-05-13T11:30:55.566Z,122.78
2018-05-13T11:32:00.971Z,126.18
2018-05-13T11:33:06.264Z,130.27
2018-05-13T11:34:11.535Z,122.57
2018-05-13T11:35:16.826Z,119.82
2018-05-13T11:36:22.211Z,125.13
2018-05-13T11:37:27.694Z,124.47
2018-05-13T11:38:32.997Z,117.78
2018-05-13T11:39:38.521Z,124.15
2018-05-13T11:40:43.818Z,126.60
2018-05-13T11:41:49.636Z,124.30
2018-05-13T11:42:55.103Z,122.82
2018-05-13T11:44:00.381Z,124.63
2018-05-13T11:45:05.708Z,123.90
2018-05-13T11:46:11.012Z,125.65
2018-05-13T11:47:16.852Z,133.82
2018-05-13T11:48:22.141Z,134.03
2018-05-13T11:49:27.609Z,131.02
2018-05-13T11:50:33.715Z,125.12
2018-05-13T11:51:39.108Z,133.93
2018-05-13T11:52:44.491Z,131.52
2018-05-13T11:53:49.845Z,132.85
2018-05-13T11:54:55.216Z,124.40
2018-05-13T11:56:00.614Z,121.22
2018-05-13T11:57:05.908Z,119.72
2018-05-13T11:58:11.526Z,119.80
2018-05-13T11:59:16.837Z,122.03
2018-05-13T12:00:22.266Z,129.77
2018-05-13T12:01:27.562Z,122.85
2018-05-13T12:02:32.939Z,125.43
2018-05-13T12:03:38.237Z,122.13
2018-05-13T12:04:43.525Z,130.02
2018-05-13T12:05:48.837Z,121.18
2018-05-13T12:06:54.104Z,116.70
2018-05-13T12:07:59.379Z,104.50
2018-05-13T12:09:05.402Z,111.22
2018-05-13T12:10:10.780Z,111.50
2018-05-13T12:11:16.063Z,109.97
2018-05-13T12:12:21.348Z,105.07
2018-05-13T12:13:26.644Z,107.95
2018-05-13T12:14:32.476Z,104.45
2018-05-13T12:15:37.733Z,102.10
2018-05-13T12:16:43.035Z,109.93
2018-05-13T12:17:48.778Z,115.97
2018-05-13T12:18:55.938Z,105.65
2018-05-13T12:20:01.777Z,108.50
2018-05-13T12:21:07.517Z,105.47
2018-05-13T12:22:12.828Z,96.30
2018-05-13T12:23:18.103Z,103.32
2018-05-13T12:24:24.180Z,104.40
2018-05-13T12:25:30.060Z,105.75
2018-05-13T12:26:36.106Z,100.20
2018-05-13T12:27:41.397Z,103.95
2018-05-13T12:28:47.104Z,110.83
2018-05-13T12:29:52.458Z,102.30
2018-05-13T12:30:57.738Z,110.05
2018-05-13T12:32:03.042Z,122.70
2018-05-13T12:33:08.759Z,115.50
2018-05-13T12:34:15.086Z,115.65
2018-05-13T12:35:20.368Z,115.43
2018-05-13T12:36:25.669Z,119.78
2018-05-13T12:37:31.118Z,117.20
2018-05-13T12:38:39.614Z,117.60
2018-05-13T12:39:45.000Z,123.28
2018-05-13T12:40:50.337Z,115.25
2018-05-13T12:41:55.859Z,119.20
2018-05-13T12:43:01.261Z,106.72
2018-05-13T12:44:06.681Z,111.93
2018-05-13T12:45:12.146Z,118.22
2018-05-13T12:46:18.186Z,118.47
2018-05-13T12:47:24.400Z,111.53
2018-05-13T12:48:30.383Z,119.72
2018-05-13T12:49:36.491Z,105.55
2018-05-13T12:50:41.773Z,109.30
2018-05-13T12:51:47.087Z,103.93
2018-05-13T12:52:52.633Z,99.17
2018-05-13T12:53:58.342Z,105.68
2018-05-13T12:55:06.743Z,100.30
2018-05-13T12:56:12.453Z,97.55
2018-05-13T12:57:17.891Z,100.95
2018-05-13T12:58:23.239Z,93.40
2018-05-13T12:59:28.657Z,94.50
2018-05-13T13:00:33.960Z,91.40
2018-05-13T13:01:39.463Z,96.37
2018-05-13T13:02:44.961Z,92.37
2018-05-13T13:03:50.370Z,97.22
2018-05-13T13:04:56.202Z,97.05
2018-05-13T13:06:01.812Z,94.00
2018-05-13T13:07:07.281Z,90.75
2018-05-13T13:08:12.885Z,97.95
2018-05-13T13:09:18.306Z,98.90
2018-05-13T13:10:23.789Z,101.18
2018-05-13T13:11:29.202Z,98.22
2018-05-13T13:12:34.629Z,98.93
2018-05-13T13:13:39.927Z,92.07
2018-05-13T13:14:45.332Z,103.05
2018-05-13T13:15:51.133Z,102.05
2018-05-13T13:16:56.536Z,100.85
2018-05-13T13:18:01.950Z,102.78
2018-05-13T13:19:07.348Z,98.87
2018-05-13T13:20:13.549Z,92.30
2018-05-13T13:21:19.371Z,101.05
2018-05-13T13:22:24.890Z,103.45
2018-05-13T13:23:32.582Z,102.18
2018-05-13T13:24:38.138Z,116.60
2018-05-13T13:25:43.429Z,110.60
2018-05-13T13:26:48.718Z,121.28
2018-05-13T13:27:54.399Z,123.82
2018-05-13T13:29:00.882Z,120.00
2018-05-13T13:30:06.684Z,102.20
2018-05-13T13:31:12.874Z,96.50
2018-05-13T13:32:18.555Z,102.80
2018-05-13T13:33:23.908Z,93.17
2018-05-13T13:34:29.286Z,90.32
2018-05-13T13:35:37.214Z,108.72
2018-05-13T13:36:42.836Z,101.90
2018-05-13T13:37:49.337Z,93.12
2018-05-13T13:38:54.743Z,97.68
2018-05-13T13:40:00.349Z,103.97
2018-05-13T13:41:05.691Z,107.35
2018-05-13T13:42:14.171Z,105.10
2018-05-13T13:43:19.972Z,101.97
2018-05-13T13:44:25.369Z,91.35
2018-05-13T13:45:30.623Z,84.55
2018-05-13T13:46:35.987Z,80.55
2018-05-13T13:47:41.266Z,87.03
2018-05-13T13:48:46.757Z,91.65
2018-05-13T13:49:52.050Z,89.80
2018-05-13T13:50:57.348Z,89.78
2018-05-13T13:52:02.657Z,88.70
2018-05-13T13:53:08.091Z,88.03
2018-05-13T13:54:13.374Z,81.80
2018-05-13T13:55:18.687Z,79.68
2018-05-13T13:56:24.001Z,81.00
2018-05-13T13:57:29.378Z,83.62
2018-05-13T13:58:34.903Z,79.07
2018-05-13T13:59:40.752Z,78.00
2018-05-13T14:00:46.090Z,76.15
2018-05-13T14:01:52.396Z,71.15
2018-05-13T14:02:57.712Z,73.85
2018-05-13T14:04:03.004Z,71.53
2018-05-13T14:05:08.316Z,74.57
2018-05-13T14:06:14.315Z,69.68
2018-05-13T14:07:19.661Z,67.07